sensor_id;sensor_type;location;lat;lon;timestamp;temperature;humidity
4081;DHT22;2055;50.074;8.436;2024-02-04T00:01:19;9.70;99.90
4081;DHT22;2055;50.074;8.436;2024-02-04T00:03:45;9.70;99.90
4081;DHT22;2055;50.074;8.436;2024-02-04T00:06:10;9.70;99.90
4081;DHT22;2055;50.074;8.436;2024-02-04T00:08:36;9.50;99.90
4081;DHT22;2055;50.074;8.436;2024-02-04T00:11:02;9.60;99.90
4081;DHT22;2055;50.074;8.436;2024-02-04T00:13:30;9.70;99.90
4081;DHT22;2055;50.074;8.436;2024-02-04T00:15:55;9.70;99.90
4081;DHT22;2055;50.074;8.436;2024-02-04T00:18:24;9.60;99.90
4081;DHT22;2055;50.074;8.436;2024-02-04T00:20:49;9.70;99.90
4081;DHT22;2055;50.074;8.436;2024-02-04T00:23:15;12.40;99.90
4081;DHT22;2055;50.074;8.436;2024-02-04T00:25:40;9.60;99.90
4081;DHT22;2055;50.074;8.436;2024-02-04T00:28:07;9.60;99.90
4081;DHT22;2055;50.074;8.436;2024-02-04T00:30:32;9.60;99.90
4081;DHT22;2055;50.074;8.436;2024-02-04T00:32:58;9.60;99.90
4081;DHT22;2055;50.074;8.436;2024-02-04T00:35:28;9.60;99.90
4081;DHT22;2055;50.074;8.436;2024-02-04T00:37:54;9.60;99.90
4081;DHT22;2055;50.074;8.436;2024-02-04T00:40:19;9.50;99.90
4081;DHT22;2055;50.074;8.436;2024-02-04T00:42:45;9.70;99.90
4081;DHT22;2055;50.074;8.436;2024-02-04T00:45:10;9.60;99.90
4081;DHT22;2055;50.074;8.436;2024-02-04T00:47:36;9.60;99.90
4081;DHT22;2055;50.074;8.436;2024-02-04T00:50:02;9.70;99.90
4081;DHT22;2055;50.074;8.436;2024-02-04T00:52:27;9.60;99.90
4081;DHT22;2055;50.074;8.436;2024-02-04T00:54:53;9.60;99.90
4081;DHT22;2055;50.074;8.436;2024-02-04T00:57:18;9.60;99.90
4081;DHT22;2055;50.074;8.436;2024-02-04T00:59:44;9.60;99.90
4081;DHT22;2055;50.074;8.436;2024-02-04T01:02:10;9.60;99.90
4081;DHT22;2055;50.074;8.436;2024-02-04T01:04:35;9.70;99.90
4081;DHT22;2055;50.074;8.436;2024-02-04T01:07:01;9.70;99.90
4081;DHT22;2055;50.074;8.436;2024-02-04T01:09:30;9.60;99.90
4081;DHT22;2055;50.074;8.436;2024-02-04T01:11:55;9.60;99.90
4081;DHT22;2055;50.074;8.436;2024-02-04T01:14:21;6.10;99.90
4081;DHT22;2055;50.074;8.436;2024-02-04T01:16:47;9.60;99.90
4081;DHT22;2055;50.074;8.436;2024-02-04T01:19:12;9.70;99.90
4081;DHT22;2055;50.074;8.436;2024-02-04T01:21:38;9.70;99.90
4081;DHT22;2055;50.074;8.436;2024-02-04T01:24:03;9.60;99.90
4081;DHT22;2055;50.074;8.436;2024-02-04T01:26:29;9.70;99.90
4081;DHT22;2055;50.074;8.436;2024-02-04T01:28:54;9.70;99.90
4081;DHT22;2055;50.074;8.436;2024-02-04T01:31:21;9.70;99.90
4081;DHT22;2055;50.074;8.436;2024-02-04T01:33:47;9.60;99.90
4081;DHT22;2055;50.074;8.436;2024-02-04T01:36:12;9.50;99.90
4081;DHT22;2055;50.074;8.436;2024-02-04T01:38:38;9.40;99.90
4081;DHT22;2055;50.074;8.436;2024-02-04T01:41:03;9.40;99.90
4081;DHT22;2055;50.074;8.436;2024-02-04T01:43:29;9.50;99.90
4081;DHT22;2055;50.074;8.436;2024-02-04T01:45:55;9.30;99.90
4081;DHT22;2055;50.074;8.436;2024-02-04T01:48:21;12.40;99.90
4081;DHT22;2055;50.074;8.436;2024-02-04T01:50:49;9.10;99.90
4081;DHT22;2055;50.074;8.436;2024-02-04T01:53:15;9.00;99.90
4081;DHT22;2055;50.074;8.436;2024-02-04T01:55:43;8.90;99.90
4081;DHT22;2055;50.074;8.436;2024-02-04T01:58:08;8.80;99.90
4081;DHT22;2055;50.074;8.436;2024-02-04T02:00:35;8.80;99.90
4081;DHT22;2055;50.074;8.436;2024-02-04T02:03:02;8.70;99.90
4081;DHT22;2055;50.074;8.436;2024-02-04T02:05:30;8.60;1.00
4081;DHT22;2055;50.074;8.436;2024-02-04T02:07:55;8.60;99.90
4081;DHT22;2055;50.074;8.436;2024-02-04T02:10:21;12.30;1.00
4081;DHT22;2055;50.074;8.436;2024-02-04T02:13:11;8.60;1.00
4081;DHT22;2055;50.074;8.436;2024-02-04T02:15:45;8.60;1.00
4081;DHT22;2055;50.074;8.436;2024-02-04T02:18:23;8.50;99.90
4081;DHT22;2055;50.074;8.436;2024-02-04T02:21:08;8.60;99.90
4081;DHT22;2055;50.074;8.436;2024-02-04T02:23:39;8.60;1.00
4081;DHT22;2055;50.074;8.436;2024-02-04T02:26:06;8.60;1.00
4081;DHT22;2055;50.074;8.436;2024-02-04T02:28:32;8.60;1.00
4081;DHT22;2055;50.074;8.436;2024-02-04T02:30:57;8.50;61.10
4081;DHT22;2055;50.074;8.436;2024-02-04T02:33:23;8.50;99.90
4081;DHT22;2055;50.074;8.436;2024-02-04T02:35:54;8.50;99.90
4081;DHT22;2055;50.074;8.436;2024-02-04T02:38:37;8.50;99.90
4081;DHT22;2055;50.074;8.436;2024-02-04T02:41:08;8.50;99.90
4081;DHT22;2055;50.074;8.436;2024-02-04T02:43:35;10.90;99.90
4081;DHT22;2055;50.074;8.436;2024-02-04T02:46:03;8.30;99.90
4081;DHT22;2055;50.074;8.436;2024-02-04T02:48:28;8.50;99.90
4081;DHT22;2055;50.074;8.436;2024-02-04T02:50:54;8.50;99.90
4081;DHT22;2055;50.074;8.436;2024-02-04T02:53:20;8.50;99.90
4081;DHT22;2055;50.074;8.436;2024-02-04T02:55:46;8.50;99.90
4081;DHT22;2055;50.074;8.436;2024-02-04T02:58:12;8.40;99.90
4081;DHT22;2055;50.074;8.436;2024-02-04T03:00:38;8.50;99.90
4081;DHT22;2055;50.074;8.436;2024-02-04T03:03:03;8.50;99.90
4081;DHT22;2055;50.074;8.436;2024-02-04T03:05:29;8.50;99.90
4081;DHT22;2055;50.074;8.436;2024-02-04T03:07:55;8.50;99.90
4081;DHT22;2055;50.074;8.436;2024-02-04T03:10:20;8.50;99.90
4081;DHT22;2055;50.074;8.436;2024-02-04T03:12:46;8.50;99.90
4081;DHT22;2055;50.074;8.436;2024-02-04T03:15:11;8.40;99.90
4081;DHT22;2055;50.074;8.436;2024-02-04T03:17:37;8.50;99.90
4081;DHT22;2055;50.074;8.436;2024-02-04T03:20:03;8.30;99.90
4081;DHT22;2055;50.074;8.436;2024-02-04T03:22:28;8.50;99.90
4081;DHT22;2055;50.074;8.436;2024-02-04T03:24:54;8.50;99.90
4081;DHT22;2055;50.074;8.436;2024-02-04T03:27:20;8.50;99.90
4081;DHT22;2055;50.074;8.436;2024-02-04T03:29:46;8.50;99.90
4081;DHT22;2055;50.074;8.436;2024-02-04T03:32:12;8.50;99.90
4081;DHT22;2055;50.074;8.436;2024-02-04T03:34:38;8.50;99.90
4081;DHT22;2055;50.074;8.436;2024-02-04T03:37:05;8.50;99.90
4081;DHT22;2055;50.074;8.436;2024-02-04T03:39:30;8.50;99.90
4081;DHT22;2055;50.074;8.436;2024-02-04T03:41:56;8.50;99.90
4081;DHT22;2055;50.074;8.436;2024-02-04T03:44:21;12.40;99.90
4081;DHT22;2055;50.074;8.436;2024-02-04T03:46:48;8.40;99.90
4081;DHT22;2055;50.074;8.436;2024-02-04T03:49:14;8.50;99.90
4081;DHT22;2055;50.074;8.436;2024-02-04T03:51:40;8.50;99.90
4081;DHT22;2055;50.074;8.436;2024-02-04T03:54:05;8.40;99.90
4081;DHT22;2055;50.074;8.436;2024-02-04T03:56:31;8.40;99.90
4081;DHT22;2055;50.074;8.436;2024-02-04T03:58:56;8.50;99.90
4081;DHT22;2055;50.074;8.436;2024-02-04T04:01:22;8.50;99.90
4081;DHT22;2055;50.074;8.436;2024-02-04T04:03:47;8.50;99.90
4081;DHT22;2055;50.074;8.436;2024-02-04T04:06:13;8.40;99.90
4081;DHT22;2055;50.074;8.436;2024-02-04T04:08:38;8.50;99.90
4081;DHT22;2055;50.074;8.436;2024-02-04T04:11:04;8.50;99.90
4081;DHT22;2055;50.074;8.436;2024-02-04T04:13:30;8.50;99.90
4081;DHT22;2055;50.074;8.436;2024-02-04T04:16:00;8.50;99.90
4081;DHT22;2055;50.074;8.436;2024-02-04T04:18:25;8.40;99.90
4081;DHT22;2055;50.074;8.436;2024-02-04T04:20:51;8.50;99.90
4081;DHT22;2055;50.074;8.436;2024-02-04T04:23:16;8.50;99.90
4081;DHT22;2055;50.074;8.436;2024-02-04T04:25:42;8.50;99.90
4081;DHT22;2055;50.074;8.436;2024-02-04T04:28:07;8.50;99.90
4081;DHT22;2055;50.074;8.436;2024-02-04T04:30:33;8.50;99.90
4081;DHT22;2055;50.074;8.436;2024-02-04T04:32:58;8.50;99.90
4081;DHT22;2055;50.074;8.436;2024-02-04T04:35:25;8.50;99.90
4081;DHT22;2055;50.074;8.436;2024-02-04T04:37:50;8.50;99.90
4081;DHT22;2055;50.074;8.436;2024-02-04T04:40:16;8.50;99.90
4081;DHT22;2055;50.074;8.436;2024-02-04T04:42:41;8.40;99.90
4081;DHT22;2055;50.074;8.436;2024-02-04T04:45:07;8.50;99.90
4081;DHT22;2055;50.074;8.436;2024-02-04T04:47:34;8.50;99.90
4081;DHT22;2055;50.074;8.436;2024-02-04T04:49:59;8.40;99.90
4081;DHT22;2055;50.074;8.436;2024-02-04T04:52:25;8.50;99.90
4081;DHT22;2055;50.074;8.436;2024-02-04T04:54:50;8.40;99.90
4081;DHT22;2055;50.074;8.436;2024-02-04T04:57:16;8.40;99.90
4081;DHT22;2055;50.074;8.436;2024-02-04T04:59:42;8.50;99.90
4081;DHT22;2055;50.074;8.436;2024-02-04T05:02:08;8.50;99.90
4081;DHT22;2055;50.074;8.436;2024-02-04T05:04:34;8.50;99.90
4081;DHT22;2055;50.074;8.436;2024-02-04T05:06:59;8.50;99.90
4081;DHT22;2055;50.074;8.436;2024-02-04T05:09:25;8.50;99.90
4081;DHT22;2055;50.074;8.436;2024-02-04T05:11:50;8.50;99.90
4081;DHT22;2055;50.074;8.436;2024-02-04T05:14:15;8.50;99.90
4081;DHT22;2055;50.074;8.436;2024-02-04T05:16:42;8.50;99.90
4081;DHT22;2055;50.074;8.436;2024-02-04T05:19:09;8.60;99.90
4081;DHT22;2055;50.074;8.436;2024-02-04T05:21:40;8.50;99.90
4081;DHT22;2055;50.074;8.436;2024-02-04T05:24:06;8.50;99.90
4081;DHT22;2055;50.074;8.436;2024-02-04T05:26:31;8.50;99.90
4081;DHT22;2055;50.074;8.436;2024-02-04T05:28:57;8.50;99.90
4081;DHT22;2055;50.074;8.436;2024-02-04T05:31:22;9.30;99.90
4081;DHT22;2055;50.074;8.436;2024-02-04T05:33:48;8.50;99.90
4081;DHT22;2055;50.074;8.436;2024-02-04T05:36:13;8.50;99.90
4081;DHT22;2055;50.074;8.436;2024-02-04T05:38:39;8.50;99.90
4081;DHT22;2055;50.074;8.436;2024-02-04T05:41:04;8.50;99.90
4081;DHT22;2055;50.074;8.436;2024-02-04T05:43:30;8.50;99.90
4081;DHT22;2055;50.074;8.436;2024-02-04T05:45:55;8.50;99.90
4081;DHT22;2055;50.074;8.436;2024-02-04T05:48:21;8.50;99.90
4081;DHT22;2055;50.074;8.436;2024-02-04T05:50:47;8.50;99.90
4081;DHT22;2055;50.074;8.436;2024-02-04T05:53:12;8.50;99.90
4081;DHT22;2055;50.074;8.436;2024-02-04T05:55:38;8.50;99.90
4081;DHT22;2055;50.074;8.436;2024-02-04T05:58:04;8.40;99.90
4081;DHT22;2055;50.074;8.436;2024-02-04T06:00:29;8.40;99.90
4081;DHT22;2055;50.074;8.436;2024-02-04T06:02:55;8.50;99.90
4081;DHT22;2055;50.074;8.436;2024-02-04T06:05:20;8.50;99.90
4081;DHT22;2055;50.074;8.436;2024-02-04T06:07:46;8.50;99.90
4081;DHT22;2055;50.074;8.436;2024-02-04T06:10:12;8.50;99.90
4081;DHT22;2055;50.074;8.436;2024-02-04T06:12:37;8.50;99.90
4081;DHT22;2055;50.074;8.436;2024-02-04T06:15:12;8.50;99.90
4081;DHT22;2055;50.074;8.436;2024-02-04T06:17:37;8.60;99.90
4081;DHT22;2055;50.074;8.436;2024-02-04T06:20:03;11.70;99.90
4081;DHT22;2055;50.074;8.436;2024-02-04T06:22:29;8.60;99.90
4081;DHT22;2055;50.074;8.436;2024-02-04T06:24:54;8.50;99.90
4081;DHT22;2055;50.074;8.436;2024-02-04T06:27:20;8.60;99.90
4081;DHT22;2055;50.074;8.436;2024-02-04T06:29:45;8.60;99.90
4081;DHT22;2055;50.074;8.436;2024-02-04T06:32:11;8.60;99.90
4081;DHT22;2055;50.074;8.436;2024-02-04T06:34:37;8.50;99.90
4081;DHT22;2055;50.074;8.436;2024-02-04T06:37:03;8.60;99.90
4081;DHT22;2055;50.074;8.436;2024-02-04T06:39:28;8.60;99.90
4081;DHT22;2055;50.074;8.436;2024-02-04T06:41:54;8.50;99.90
4081;DHT22;2055;50.074;8.436;2024-02-04T06:44:19;8.60;99.90
4081;DHT22;2055;50.074;8.436;2024-02-04T06:46:45;8.80;99.90
4081;DHT22;2055;50.074;8.436;2024-02-04T06:49:11;8.60;99.90
4081;DHT22;2055;50.074;8.436;2024-02-04T06:51:36;8.60;99.90
4081;DHT22;2055;50.074;8.436;2024-02-04T06:54:02;8.30;99.90
4081;DHT22;2055;50.074;8.436;2024-02-04T06:56:27;8.20;99.90
4081;DHT22;2055;50.074;8.436;2024-02-04T06:58:53;8.60;99.90
4081;DHT22;2055;50.074;8.436;2024-02-04T07:01:19;8.60;99.90
4081;DHT22;2055;50.074;8.436;2024-02-04T07:03:45;8.60;99.90
4081;DHT22;2055;50.074;8.436;2024-02-04T07:06:11;8.60;99.90
4081;DHT22;2055;50.074;8.436;2024-02-04T07:08:36;8.50;99.90
4081;DHT22;2055;50.074;8.436;2024-02-04T07:11:02;9.40;99.90
4081;DHT22;2055;50.074;8.436;2024-02-04T07:13:28;8.50;99.90
4081;DHT22;2055;50.074;8.436;2024-02-04T07:15:54;8.60;99.90
4081;DHT22;2055;50.074;8.436;2024-02-04T07:18:19;8.60;99.90
4081;DHT22;2055;50.074;8.436;2024-02-04T07:20:47;8.50;99.90
4081;DHT22;2055;50.074;8.436;2024-02-04T07:23:13;8.50;99.90
4081;DHT22;2055;50.074;8.436;2024-02-04T07:25:38;8.50;99.90
4081;DHT22;2055;50.074;8.436;2024-02-04T07:28:04;8.50;99.90
4081;DHT22;2055;50.074;8.436;2024-02-04T07:30:29;8.50;99.90
4081;DHT22;2055;50.074;8.436;2024-02-04T07:32:55;8.50;99.90
4081;DHT22;2055;50.074;8.436;2024-02-04T07:35:20;8.50;99.90
4081;DHT22;2055;50.074;8.436;2024-02-04T07:37:47;8.60;99.90
4081;DHT22;2055;50.074;8.436;2024-02-04T07:40:12;8.60;99.90
4081;DHT22;2055;50.074;8.436;2024-02-04T07:42:38;8.60;99.90
4081;DHT22;2055;50.074;8.436;2024-02-04T07:45:04;8.60;99.90
4081;DHT22;2055;50.074;8.436;2024-02-04T07:47:37;8.60;99.90
4081;DHT22;2055;50.074;8.436;2024-02-04T07:50:04;8.70;99.90
4081;DHT22;2055;50.074;8.436;2024-02-04T07:52:30;8.70;99.90
4081;DHT22;2055;50.074;8.436;2024-02-04T07:54:55;8.60;99.90
4081;DHT22;2055;50.074;8.436;2024-02-04T07:57:21;8.60;99.90
4081;DHT22;2055;50.074;8.436;2024-02-04T07:59:46;8.70;99.90
4081;DHT22;2055;50.074;8.436;2024-02-04T08:02:12;8.60;99.90
4081;DHT22;2055;50.074;8.436;2024-02-04T08:04:40;8.70;99.90
4081;DHT22;2055;50.074;8.436;2024-02-04T08:07:06;8.60;99.90
4081;DHT22;2055;50.074;8.436;2024-02-04T08:09:32;8.80;99.90
4081;DHT22;2055;50.074;8.436;2024-02-04T08:11:58;8.70;99.90
4081;DHT22;2055;50.074;8.436;2024-02-04T08:14:23;8.70;99.90
4081;DHT22;2055;50.074;8.436;2024-02-04T08:16:49;8.80;99.90
4081;DHT22;2055;50.074;8.436;2024-02-04T08:19:15;8.90;99.90
4081;DHT22;2055;50.074;8.436;2024-02-04T08:21:40;8.80;99.90
4081;DHT22;2055;50.074;8.436;2024-02-04T08:24:06;8.70;99.90
4081;DHT22;2055;50.074;8.436;2024-02-04T08:26:32;8.80;99.90
4081;DHT22;2055;50.074;8.436;2024-02-04T08:28:57;9.00;99.90
4081;DHT22;2055;50.074;8.436;2024-02-04T08:31:23;8.80;99.90
4081;DHT22;2055;50.074;8.436;2024-02-04T08:33:48;8.80;99.90
4081;DHT22;2055;50.074;8.436;2024-02-04T08:36:14;8.90;99.90
4081;DHT22;2055;50.074;8.436;2024-02-04T08:38:40;8.90;99.90
4081;DHT22;2055;50.074;8.436;2024-02-04T08:41:06;8.90;99.90
4081;DHT22;2055;50.074;8.436;2024-02-04T08:43:31;12.00;99.90
4081;DHT22;2055;50.074;8.436;2024-02-04T08:45:57;8.90;99.90
4081;DHT22;2055;50.074;8.436;2024-02-04T08:48:22;9.10;99.90
4081;DHT22;2055;50.074;8.436;2024-02-04T08:50:48;9.10;99.90
4081;DHT22;2055;50.074;8.436;2024-02-04T08:53:13;9.00;99.90
4081;DHT22;2055;50.074;8.436;2024-02-04T08:55:39;9.00;99.90
4081;DHT22;2055;50.074;8.436;2024-02-04T08:58:05;9.20;99.90
4081;DHT22;2055;50.074;8.436;2024-02-04T09:00:30;9.20;99.90
4081;DHT22;2055;50.074;8.436;2024-02-04T09:02:56;9.20;99.90
4081;DHT22;2055;50.074;8.436;2024-02-04T09:05:22;9.10;99.90
4081;DHT22;2055;50.074;8.436;2024-02-04T09:07:47;9.10;99.90
4081;DHT22;2055;50.074;8.436;2024-02-04T09:10:13;9.20;99.90
4081;DHT22;2055;50.074;8.436;2024-02-04T09:12:39;9.20;99.90
4081;DHT22;2055;50.074;8.436;2024-02-04T09:15:05;9.10;99.90
4081;DHT22;2055;50.074;8.436;2024-02-04T09:17:31;9.10;99.90
4081;DHT22;2055;50.074;8.436;2024-02-04T09:19:58;9.10;99.90
4081;DHT22;2055;50.074;8.436;2024-02-04T09:22:24;6.70;99.90
4081;DHT22;2055;50.074;8.436;2024-02-04T09:24:50;9.10;99.90
4081;DHT22;2055;50.074;8.436;2024-02-04T09:27:15;9.10;99.90
4081;DHT22;2055;50.074;8.436;2024-02-04T09:29:41;9.10;99.90
4081;DHT22;2055;50.074;8.436;2024-02-04T09:32:06;9.20;99.90
4081;DHT22;2055;50.074;8.436;2024-02-04T09:34:33;9.10;99.90
4081;DHT22;2055;50.074;8.436;2024-02-04T09:36:58;9.20;99.90
4081;DHT22;2055;50.074;8.436;2024-02-04T09:39:24;9.30;99.90
4081;DHT22;2055;50.074;8.436;2024-02-04T09:41:50;9.40;99.90
4081;DHT22;2055;50.074;8.436;2024-02-04T09:44:15;9.50;99.90
4081;DHT22;2055;50.074;8.436;2024-02-04T09:46:42;9.60;99.90
4081;DHT22;2055;50.074;8.436;2024-02-04T09:49:08;9.40;99.90
4081;DHT22;2055;50.074;8.436;2024-02-04T09:51:34;9.40;99.90
4081;DHT22;2055;50.074;8.436;2024-02-04T09:54:03;9.50;99.90
4081;DHT22;2055;50.074;8.436;2024-02-04T09:56:32;9.50;99.90
4081;DHT22;2055;50.074;8.436;2024-02-04T09:58:58;9.50;99.90
4081;DHT22;2055;50.074;8.436;2024-02-04T10:01:23;9.40;99.90
4081;DHT22;2055;50.074;8.436;2024-02-04T10:03:50;9.50;99.90
4081;DHT22;2055;50.074;8.436;2024-02-04T10:06:15;9.60;99.90
4081;DHT22;2055;50.074;8.436;2024-02-04T10:08:42;9.70;99.90
4081;DHT22;2055;50.074;8.436;2024-02-04T10:11:09;9.70;99.90
4081;DHT22;2055;50.074;8.436;2024-02-04T10:13:44;10.10;99.90
4081;DHT22;2055;50.074;8.436;2024-02-04T10:16:09;9.70;99.90
4081;DHT22;2055;50.074;8.436;2024-02-04T10:18:35;9.70;99.90
4081;DHT22;2055;50.074;8.436;2024-02-04T10:21:01;9.60;99.90
4081;DHT22;2055;50.074;8.436;2024-02-04T10:23:26;9.60;99.90
4081;DHT22;2055;50.074;8.436;2024-02-04T10:25:59;9.60;99.90
4081;DHT22;2055;50.074;8.436;2024-02-04T10:28:25;9.80;99.90
4081;DHT22;2055;50.074;8.436;2024-02-04T10:30:51;9.90;99.90
4081;DHT22;2055;50.074;8.436;2024-02-04T10:33:16;9.90;99.90
4081;DHT22;2055;50.074;8.436;2024-02-04T10:35:42;9.70;99.90
4081;DHT22;2055;50.074;8.436;2024-02-04T10:38:08;9.80;99.90
4081;DHT22;2055;50.074;8.436;2024-02-04T10:40:35;9.80;99.90
4081;DHT22;2055;50.074;8.436;2024-02-04T10:43:04;9.80;99.90
4081;DHT22;2055;50.074;8.436;2024-02-04T10:45:32;9.90;99.90
4081;DHT22;2055;50.074;8.436;2024-02-04T10:48:01;9.80;99.90
4081;DHT22;2055;50.074;8.436;2024-02-04T10:50:28;12.30;99.90
4081;DHT22;2055;50.074;8.436;2024-02-04T10:52:58;9.90;99.90
4081;DHT22;2055;50.074;8.436;2024-02-04T10:55:29;10.00;99.90
4081;DHT22;2055;50.074;8.436;2024-02-04T10:57:56;9.80;99.90
4081;DHT22;2055;50.074;8.436;2024-02-04T11:00:22;9.80;99.90
4081;DHT22;2055;50.074;8.436;2024-02-04T11:02:48;10.10;99.90
4081;DHT22;2055;50.074;8.436;2024-02-04T11:05:15;10.00;99.90
4081;DHT22;2055;50.074;8.436;2024-02-04T11:07:45;9.80;99.90
4081;DHT22;2055;50.074;8.436;2024-02-04T11:10:11;9.90;99.90
4081;DHT22;2055;50.074;8.436;2024-02-04T11:12:38;10.00;99.90
4081;DHT22;2055;50.074;8.436;2024-02-04T11:15:06;10.20;99.90
4081;DHT22;2055;50.074;8.436;2024-02-04T11:20:34;10.10;99.90
4081;DHT22;2055;50.074;8.436;2024-02-04T11:24:08;10.00;99.90
4081;DHT22;2055;50.074;8.436;2024-02-04T11:26:35;10.00;99.90
4081;DHT22;2055;50.074;8.436;2024-02-04T11:29:03;10.10;99.90
4081;DHT22;2055;50.074;8.436;2024-02-04T11:31:31;10.10;99.90
4081;DHT22;2055;50.074;8.436;2024-02-04T11:33:56;10.00;99.90
4081;DHT22;2055;50.074;8.436;2024-02-04T11:36:25;10.00;99.90
4081;DHT22;2055;50.074;8.436;2024-02-04T11:38:51;10.20;99.90
4081;DHT22;2055;50.074;8.436;2024-02-04T11:41:26;9.70;99.90
4081;DHT22;2055;50.074;8.436;2024-02-04T11:43:53;10.10;99.90
4081;DHT22;2055;50.074;8.436;2024-02-04T11:46:21;10.10;99.90
4081;DHT22;2055;50.074;8.436;2024-02-04T11:48:53;10.00;99.90
4081;DHT22;2055;50.074;8.436;2024-02-04T11:51:22;10.10;99.90
4081;DHT22;2055;50.074;8.436;2024-02-04T11:53:49;10.00;99.90
4081;DHT22;2055;50.074;8.436;2024-02-04T11:56:15;10.00;99.90
4081;DHT22;2055;50.074;8.436;2024-02-04T11:58:40;10.00;99.90
4081;DHT22;2055;50.074;8.436;2024-02-04T12:01:09;10.10;99.90
4081;DHT22;2055;50.074;8.436;2024-02-04T12:03:35;10.20;99.90
4081;DHT22;2055;50.074;8.436;2024-02-04T12:06:03;8.00;99.90
4081;DHT22;2055;50.074;8.436;2024-02-04T12:08:32;10.30;99.90
4081;DHT22;2055;50.074;8.436;2024-02-04T12:10:58;10.30;99.90
4081;DHT22;2055;50.074;8.436;2024-02-04T12:13:24;10.50;99.90
4081;DHT22;2055;50.074;8.436;2024-02-04T12:15:50;10.40;99.90
4081;DHT22;2055;50.074;8.436;2024-02-04T12:18:16;10.50;99.90
4081;DHT22;2055;50.074;8.436;2024-02-04T12:20:48;10.30;99.90
4081;DHT22;2055;50.074;8.436;2024-02-04T12:23:17;10.50;73.00
4081;DHT22;2055;50.074;8.436;2024-02-04T12:25:47;10.50;99.90
4081;DHT22;2055;50.074;8.436;2024-02-04T12:28:14;10.70;1.00
4081;DHT22;2055;50.074;8.436;2024-02-04T12:30:39;10.70;1.00
4081;DHT22;2055;50.074;8.436;2024-02-04T12:33:05;10.80;1.00
4081;DHT22;2055;50.074;8.436;2024-02-04T12:35:32;11.00;99.90
4081;DHT22;2055;50.074;8.436;2024-02-04T12:37:58;11.20;99.90
4081;DHT22;2055;50.074;8.436;2024-02-04T12:40:25;11.10;17.00
4081;DHT22;2055;50.074;8.436;2024-02-04T12:42:55;11.20;1.00
4081;DHT22;2055;50.074;8.436;2024-02-04T12:45:24;11.10;1.00
4081;DHT22;2055;50.074;8.436;2024-02-04T12:47:57;11.00;1.00
4081;DHT22;2055;50.074;8.436;2024-02-04T12:50:23;11.10;1.00
4081;DHT22;2055;50.074;8.436;2024-02-04T12:53:03;11.10;1.00
4081;DHT22;2055;50.074;8.436;2024-02-04T12:55:33;11.20;1.00
4081;DHT22;2055;50.074;8.436;2024-02-04T12:58:09;11.10;1.00
4081;DHT22;2055;50.074;8.436;2024-02-04T13:00:38;11.20;1.00
4081;DHT22;2055;50.074;8.436;2024-02-04T13:03:05;11.20;1.00
4081;DHT22;2055;50.074;8.436;2024-02-04T13:05:30;11.20;1.00
4081;DHT22;2055;50.074;8.436;2024-02-04T13:07:58;11.30;1.00
4081;DHT22;2055;50.074;8.436;2024-02-04T13:10:34;11.30;1.00
4081;DHT22;2055;50.074;8.436;2024-02-04T13:13:07;11.40;1.00
4081;DHT22;2055;50.074;8.436;2024-02-04T13:15:38;11.40;1.00
4081;DHT22;2055;50.074;8.436;2024-02-04T13:18:04;11.50;1.00
4081;DHT22;2055;50.074;8.436;2024-02-04T13:20:30;11.50;1.00
4081;DHT22;2055;50.074;8.436;2024-02-04T13:22:55;11.40;1.00
4081;DHT22;2055;50.074;8.436;2024-02-04T13:25:22;11.40;1.00
4081;DHT22;2055;50.074;8.436;2024-02-04T13:27:52;11.40;1.00
4081;DHT22;2055;50.074;8.436;2024-02-04T13:30:18;11.50;1.00
4081;DHT22;2055;50.074;8.436;2024-02-04T13:32:45;11.40;1.00
4081;DHT22;2055;50.074;8.436;2024-02-04T13:35:11;11.30;1.00
4081;DHT22;2055;50.074;8.436;2024-02-04T13:37:39;11.40;1.00
4081;DHT22;2055;50.074;8.436;2024-02-04T13:40:05;12.70;1.00
4081;DHT22;2055;50.074;8.436;2024-02-04T13:42:32;11.50;1.00
4081;DHT22;2055;50.074;8.436;2024-02-04T13:45:01;11.50;1.00
4081;DHT22;2055;50.074;8.436;2024-02-04T13:47:28;12.60;1.00
4081;DHT22;2055;50.074;8.436;2024-02-04T13:49:54;11.50;99.90
4081;DHT22;2055;50.074;8.436;2024-02-04T13:52:20;11.40;99.90
4081;DHT22;2055;50.074;8.436;2024-02-04T13:54:46;11.50;99.90
4081;DHT22;2055;50.074;8.436;2024-02-04T13:57:11;11.50;99.90
4081;DHT22;2055;50.074;8.436;2024-02-04T13:59:37;11.20;99.90
4081;DHT22;2055;50.074;8.436;2024-02-04T14:02:03;11.20;99.90
4081;DHT22;2055;50.074;8.436;2024-02-04T14:04:29;11.10;99.90
4081;DHT22;2055;50.074;8.436;2024-02-04T14:06:55;11.20;99.90
4081;DHT22;2055;50.074;8.436;2024-02-04T14:09:21;11.20;99.90
4081;DHT22;2055;50.074;8.436;2024-02-04T14:11:46;13.40;99.90
4081;DHT22;2055;50.074;8.436;2024-02-04T14:14:12;11.00;99.90
4081;DHT22;2055;50.074;8.436;2024-02-04T14:16:38;11.00;99.90
4081;DHT22;2055;50.074;8.436;2024-02-04T14:19:04;11.00;99.90
4081;DHT22;2055;50.074;8.436;2024-02-04T14:21:29;11.00;99.90
4081;DHT22;2055;50.074;8.436;2024-02-04T14:23:55;11.00;99.90
4081;DHT22;2055;50.074;8.436;2024-02-04T14:26:21;10.90;99.90
4081;DHT22;2055;50.074;8.436;2024-02-04T14:28:48;10.90;99.90
4081;DHT22;2055;50.074;8.436;2024-02-04T14:31:14;10.80;99.90
4081;DHT22;2055;50.074;8.436;2024-02-04T14:33:41;11.00;99.90
4081;DHT22;2055;50.074;8.436;2024-02-04T14:36:07;11.10;99.90
4081;DHT22;2055;50.074;8.436;2024-02-04T14:38:33;11.10;99.90
4081;DHT22;2055;50.074;8.436;2024-02-04T14:40:59;13.30;99.90
4081;DHT22;2055;50.074;8.436;2024-02-04T14:43:25;11.10;99.90
4081;DHT22;2055;50.074;8.436;2024-02-04T14:45:51;11.20;99.90
4081;DHT22;2055;50.074;8.436;2024-02-04T14:48:16;11.00;99.90
4081;DHT22;2055;50.074;8.436;2024-02-04T14:50:42;11.10;99.90
4081;DHT22;2055;50.074;8.436;2024-02-04T14:53:08;11.10;99.90
4081;DHT22;2055;50.074;8.436;2024-02-04T14:55:33;11.20;99.90
4081;DHT22;2055;50.074;8.436;2024-02-04T14:57:59;11.20;99.90
4081;DHT22;2055;50.074;8.436;2024-02-04T15:00:25;11.00;99.90
4081;DHT22;2055;50.074;8.436;2024-02-04T15:02:53;11.20;99.90
4081;DHT22;2055;50.074;8.436;2024-02-04T15:05:19;11.30;99.90
4081;DHT22;2055;50.074;8.436;2024-02-04T15:07:47;11.30;99.90
4081;DHT22;2055;50.074;8.436;2024-02-04T15:10:13;12.30;99.90
4081;DHT22;2055;50.074;8.436;2024-02-04T15:12:39;11.20;99.90
4081;DHT22;2055;50.074;8.436;2024-02-04T15:15:05;11.20;99.90
4081;DHT22;2055;50.074;8.436;2024-02-04T15:17:32;11.20;99.90
4081;DHT22;2055;50.074;8.436;2024-02-04T15:19:58;11.20;99.90
4081;DHT22;2055;50.074;8.436;2024-02-04T15:22:24;11.20;99.90
4081;DHT22;2055;50.074;8.436;2024-02-04T15:24:50;11.20;99.90
4081;DHT22;2055;50.074;8.436;2024-02-04T15:27:19;11.30;99.90
4081;DHT22;2055;50.074;8.436;2024-02-04T15:29:48;11.20;99.90
4081;DHT22;2055;50.074;8.436;2024-02-04T15:32:16;11.30;99.90
4081;DHT22;2055;50.074;8.436;2024-02-04T15:34:42;11.30;99.90
4081;DHT22;2055;50.074;8.436;2024-02-04T15:37:08;11.30;99.90
4081;DHT22;2055;50.074;8.436;2024-02-04T15:39:34;11.30;99.90
4081;DHT22;2055;50.074;8.436;2024-02-04T15:42:00;11.20;99.90
4081;DHT22;2055;50.074;8.436;2024-02-04T15:44:25;11.20;99.90
4081;DHT22;2055;50.074;8.436;2024-02-04T15:46:51;11.30;99.90
4081;DHT22;2055;50.074;8.436;2024-02-04T15:49:19;11.50;99.90
4081;DHT22;2055;50.074;8.436;2024-02-04T15:51:46;11.20;99.90
4081;DHT22;2055;50.074;8.436;2024-02-04T15:54:12;11.10;99.90
4081;DHT22;2055;50.074;8.436;2024-02-04T15:56:42;11.00;99.90
4081;DHT22;2055;50.074;8.436;2024-02-04T15:59:12;11.00;99.90
4081;DHT22;2055;50.074;8.436;2024-02-04T16:01:39;10.90;99.90
4081;DHT22;2055;50.074;8.436;2024-02-04T16:04:08;10.90;99.90
4081;DHT22;2055;50.074;8.436;2024-02-04T16:06:34;10.90;99.90
4081;DHT22;2055;50.074;8.436;2024-02-04T16:09:01;11.00;99.90
4081;DHT22;2055;50.074;8.436;2024-02-04T16:11:27;10.90;99.90
4081;DHT22;2055;50.074;8.436;2024-02-04T16:13:59;11.10;99.90